Time;durP1;ratioP1;P1;durP2;ratioP2;P2;SDS_P1;SDS_P2;PMS_P1;PMS_P2;Temp;Humidity;BMP_temperature;BMP_pressure;BME280_temperature;BME280_humidity;BME280_pressure;Samples;Min_cycle;Max_cycle;Signal;HPM_P1;HPM_P2
2023/04/28 00:02:02;;;;;;;12.10;7.55;;;6.70;99.90;;;;;;5053374;28;20395;-70
2023/04/28 00:04:28;;;;;;;9.90;7.72;;;6.70;99.90;;;;;;5053681;28;20052;-67
2023/04/28 00:06:53;;;;;;;11.15;7.57;;;6.70;99.90;;;;;;5053574;28;20041;-68
2023/04/28 00:09:19;;;;;;;10.50;8.20;;;6.70;99.90;;;;;;5052980;28;20048;-68
2023/04/28 00:11:45;;;;;;;8.20;6.93;;;6.70;99.90;;;;;;5052132;28;20040;-68
2023/04/28 00:14:11;;;;;;;8.63;7.15;;;6.60;99.90;;;;;;5052682;28;20474;-68
2023/04/28 00:16:37;;;;;;;10.00;7.28;;;6.70;99.90;;;;;;5052990;28;20107;-69
2023/04/28 00:19:03;;;;;;;8.85;7.40;;;6.70;99.90;;;;;;5035683;28;20460;-70
2023/04/28 00:21:29;;;;;;;9.18;7.60;;;6.70;99.90;;;;;;5052860;28;20045;-68
2023/04/28 00:23:54;;;;;;;8.60;7.00;;;6.70;99.90;;;;;;5052749;28;20087;-68
2023/04/28 00:26:20;;;;;;;11.82;7.30;;;6.70;99.90;;;;;;5085300;28;20084;-68
2023/04/28 00:28:46;;;;;;;13.52;8.18;;;6.70;99.90;;;;;;5052711;28;20074;-68
2023/04/28 00:31:13;;;;;;;11.43;7.47;;;6.70;99.90;;;;;;5052653;28;20060;-68
2023/04/28 00:33:39;;;;;;;9.00;7.20;;;6.70;99.90;;;;;;5051327;28;20138;-68
2023/04/28 00:36:06;;;;;;;7.82;6.95;;;6.70;99.90;;;;;;5051452;28;20059;-70
2023/04/28 00:38:32;;;;;;;8.40;7.55;;;6.70;99.90;;;;;;5085324;28;20146;-68
2023/04/28 00:40:57;;;;;;;8.65;7.13;;;6.70;99.90;;;;;;5052536;28;20053;-68
2023/04/28 00:43:23;;;;;;;10.90;7.75;;;6.70;99.90;;;;;;5052729;28;20102;-68
2023/04/28 00:45:50;;;;;;;11.70;7.72;;;6.70;99.90;;;;;;5052446;28;20088;-70
2023/04/28 00:48:17;;;;;;;9.55;7.28;;;6.70;99.90;;;;;;5052544;28;20145;-68
2023/04/28 00:50:44;;;;;;;8.20;6.43;;;6.70;99.90;;;;;;5052446;28;20048;-70
2023/04/28 00:53:10;;;;;;;7.70;6.45;;;6.70;99.90;;;;;;5052621;28;20052;-70
2023/04/28 01:13:46;;;;;;;8.02;6.70;;;6.60;99.90;;;;;;5053922;28;20135;-78
2023/04/28 01:16:12;;;;;;;9.32;7.72;;;6.60;99.90;;;;;;5056708;28;20068;-78
2023/04/28 01:18:41;;;;;;;11.43;7.75;;;6.60;99.90;;;;;;5056827;28;20116;-77
2023/04/28 01:21:07;;;;;;;10.48;8.32;;;6.60;99.90;;;;;;5056014;28;20527;-79
2023/04/28 01:23:33;;;;;;;9.68;8.23;;;6.60;99.90;;;;;;5056494;28;20048;-76
2023/04/28 01:25:58;;;;;;;11.50;8.10;;;6.70;99.90;;;;;;5056459;28;20493;-78
2023/04/28 01:28:24;;;;;;;10.63;8.57;;;6.70;99.90;;;;;;5056180;28;20520;-75
2023/04/28 01:30:50;;;;;;;9.23;7.93;;;6.70;99.90;;;;;;5056023;28;20124;-79
2023/04/28 01:33:15;;;;;;;11.27;7.97;;;6.70;99.90;;;;;;5054916;28;20041;-79
2023/04/28 01:35:41;;;;;;;10.07;8.15;;;6.70;99.90;;;;;;5056240;28;20098;-76
2023/04/28 01:38:07;;;;;;;10.25;8.00;;;6.70;99.90;;;;;;5054966;28;20504;-78
2023/04/28 01:40:32;;;;;;;11.80;8.80;;;6.70;99.90;;;;;;5056005;28;20041;-77
2023/04/28 01:42:58;;;;;;;16.08;8.52;;;6.70;99.90;;;;;;5055057;28;20045;-77
2023/04/28 01:45:24;;;;;;;14.10;9.05;;;6.70;99.90;;;;;;5054872;28;20049;-78
2023/04/28 01:47:49;;;;;;;11.48;8.65;;;6.70;99.90;;;;;;5055309;28;20060;-78
2023/04/28 01:50:15;;;;;;;11.68;9.48;;;6.70;99.90;;;;;;5056015;28;20465;-79
2023/04/28 01:52:41;;;;;;;11.45;10.25;;;6.70;99.90;;;;;;5054741;28;20067;-77
2023/04/28 01:55:07;;;;;;;14.38;10.30;;;6.70;99.90;;;;;;5055758;28;20049;-77
2023/04/28 01:57:34;;;;;;;13.23;9.48;;;6.70;99.90;;;;;;5055617;28;20080;-78
2023/04/28 02:00:00;;;;;;;13.05;9.85;;;6.70;99.90;;;;;;5055586;28;20490;-79
2023/04/28 02:02:26;;;;;;;14.50;9.52;;;6.70;99.90;;;;;;5055525;28;20041;-78
2023/04/28 02:04:52;;;;;;;14.63;10.35;;;6.60;99.90;;;;;;5054382;28;20357;-75
2023/04/28 02:07:17;;;;;;;13.48;10.20;;;6.60;99.90;;;;;;5055075;28;20053;-78
2023/04/28 02:09:43;;;;;;;13.43;10.07;;;6.60;99.90;;;;;;5055210;28;20037;-78
2023/04/28 02:12:09;;;;;;;12.32;10.20;;;6.50;99.90;;;;;;5055163;28;20049;-77
2023/04/28 02:14:34;;;;;;;12.02;9.95;;;6.50;99.90;;;;;;5055238;28;20053;-75
2023/04/28 02:17:02;;;;;;;14.13;10.57;;;6.50;99.90;;;;;;5055566;28;20078;-78
2023/04/28 02:19:27;;;;;;;12.73;10.60;;;6.60;99.90;;;;;;5055298;28;20123;-77
2023/04/28 02:21:53;;;;;;;14.85;11.02;;;6.50;99.90;;;;;;5054847;28;20088;-78
2023/04/28 02:24:19;;;;;;;17.80;11.57;;;6.50;99.90;;;;;;5055384;28;20049;-78
2023/04/28 02:26:44;;;;;;;16.92;10.85;;;6.50;99.90;;;;;;5054295;28;20195;-77
2023/04/28 02:29:10;;;;;;;15.48;10.50;;;6.50;99.90;;;;;;5055397;28;20090;-78
2023/04/28 02:31:36;;;;;;;14.77;11.18;;;6.50;99.90;;;;;;5055490;28;20127;-77
2023/04/28 02:34:01;;;;;;;17.98;10.82;;;6.50;99.90;;;;;;5054961;28;20503;-78
2023/04/28 02:36:27;;;;;;;16.55;11.98;;;6.50;99.90;;;;;;5055061;28;20041;-78
2023/04/28 02:38:53;;;;;;;16.08;11.02;;;6.50;99.90;;;;;;5054905;28;20429;-76
2023/04/28 02:41:18;;;;;;;17.92;11.80;;;6.50;99.90;;;;;;5054158;28;20129;-76
2023/04/28 02:43:44;;;;;;;15.77;11.68;;;6.50;99.90;;;;;;5055154;28;20071;-77
2023/04/28 02:46:10;;;;;;;16.35;13.40;;;6.50;99.90;;;;;;5054707;28;20128;-77
2023/04/28 02:48:36;;;;;;;18.42;12.23;;;6.50;99.90;;;;;;5054825;28;20084;-76
2023/04/28 02:51:02;;;;;;;15.73;11.70;;;6.50;99.90;;;;;;5054889;28;20065;-78
2023/04/28 02:53:27;;;;;;;19.77;12.95;;;6.50;99.90;;;;;;5054792;28;20120;-76
2023/04/28 02:55:53;;;;;;;21.45;13.45;;;6.50;99.90;;;;;;5055065;28;20395;-75
2023/04/28 02:58:19;;;;;;;17.42;13.10;;;6.50;99.90;;;;;;5054884;28;20132;-79
2023/04/28 03:00:45;;;;;;;19.67;13.93;;;6.50;99.90;;;;;;5053461;28;20049;-79
2023/04/28 03:03:11;;;;;;;18.25;13.43;;;6.50;99.90;;;;;;5054666;28;20053;-77
2023/04/28 03:05:37;;;;;;;19.05;13.82;;;6.40;99.90;;;;;;5054433;28;20477;-78
2023/04/28 03:08:02;;;;;;;21.05;14.98;;;6.40;99.90;;;;;;5054228;28;20053;-75
2023/04/28 03:10:28;;;;;;;22.80;15.27;;;6.40;99.90;;;;;;5054555;28;20041;-77
2023/04/28 03:12:54;;;;;;;20.48;15.50;;;6.50;99.90;;;;;;5054901;28;20140;-77
2023/04/28 03:15:19;;;;;;;19.15;12.98;;;6.40;99.90;;;;;;5054597;28;20041;-78
2023/04/28 03:17:45;;;;;;;20.17;14.23;;;6.40;99.90;;;;;;5054251;28;20103;-75
2023/04/28 03:20:11;;;;;;;19.02;13.57;;;6.40;99.90;;;;;;5054504;28;20041;-77
2023/04/28 03:22:37;;;;;;;22.58;14.65;;;6.30;99.90;;;;;;5054059;28;20090;-77
2023/04/28 03:25:04;;;;;;;21.10;14.85;;;6.30;99.90;;;;;;5054126;28;20069;-75
2023/04/28 03:27:30;;;;;;;19.38;14.85;;;6.30;99.90;;;;;;5054399;28;20048;-77
2023/04/28 03:29:56;;;;;;;23.33;13.60;;;6.40;99.90;;;;;;5053942;28;20045;-78
2023/04/28 03:32:21;;;;;;;20.17;14.65;;;6.30;99.90;;;;;;5053199;28;20102;-77
2023/04/28 03:34:47;;;;;;;20.67;14.43;;;6.30;99.90;;;;;;5053822;28;20045;-78
2023/04/28 03:37:13;;;;;;;20.42;14.60;;;6.20;99.90;;;;;;5053836;28;20128;-74
2023/04/28 03:39:39;;;;;;;21.88;15.35;;;6.20;99.90;;;;;;5054304;28;20076;-77
2023/04/28 03:42:04;;;;;;;18.98;15.27;;;6.20;99.90;;;;;;5054160;28;20131;-77
2023/04/28 03:44:30;;;;;;;21.77;15.13;;;6.20;99.90;;;;;;5053819;28;20080;-77
2023/04/28 03:46:56;;;;;;;20.77;14.43;;;6.20;99.90;;;;;;5053784;28;20091;-78
2023/04/28 03:49:22;;;;;;;21.40;14.43;;;6.20;99.90;;;;;;5053725;28;20115;-78
2023/04/28 03:51:48;;;;;;;22.15;15.75;;;6.20;99.90;;;;;;5053874;28;20124;-77
2023/04/28 03:54:14;;;;;;;20.05;14.95;;;6.20;99.90;;;;;;5054050;28;20056;-75
2023/04/28 03:56:41;;;;;;;20.92;13.98;;;6.20;99.90;;;;;;5053703;28;20041;-77
2023/04/28 03:59:07;;;;;;;21.30;14.23;;;6.20;99.90;;;;;;5053023;28;20098;-76
2023/04/28 04:01:32;;;;;;;21.65;14.88;;;6.30;99.90;;;;;;5054691;28;20436;-74
2023/04/28 04:03:58;;;;;;;21.60;14.13;;;6.30;99.90;;;;;;5052528;28;20048;-76
2023/04/28 04:06:24;;;;;;;19.63;14.43;;;6.20;99.90;;;;;;5053544;28;20090;-75
2023/04/28 04:08:49;;;;;;;21.25;14.32;;;6.20;99.90;;;;;;5053660;28;20084;-76
2023/04/28 04:11:15;;;;;;;17.55;14.07;;;6.20;99.90;;;;;;5051964;28;20497;-76
2023/04/28 04:13:41;;;;;;;20.92;13.82;;;6.20;99.90;;;;;;5053347;28;20139;-77
2023/04/28 04:16:07;;;;;;;20.30;14.45;;;6.20;99.90;;;;;;5051968;28;20099;-77
2023/04/28 04:18:32;;;;;;;22.80;15.40;;;6.20;99.90;;;;;;5053808;28;20071;-76
2023/04/28 04:20:58;;;;;;;21.02;14.38;;;6.20;99.90;;;;;;5053315;28;20519;-75
2023/04/28 04:23:24;;;;;;;16.85;14.15;;;6.20;99.90;;;;;;5064606;28;20056;-73
2023/04/28 04:25:50;;;;;;;22.05;14.57;;;6.20;99.90;;;;;;5063854;28;20128;-77
2023/04/28 04:28:15;;;;;;;18.95;14.20;;;6.30;99.90;;;;;;5061400;28;20044;-75
2023/04/28 04:30:41;;;;;;;20.92;14.95;;;6.20;99.90;;;;;;5054377;28;20079;-76
2023/04/28 04:33:07;;;;;;;18.27;14.02;;;6.30;99.90;;;;;;5052608;28;20102;-76
2023/04/28 04:35:33;;;;;;;22.55;16.08;;;6.30;99.90;;;;;;5052846;28;20088;-78
2023/04/28 04:38:00;;;;;;;19.73;14.88;;;6.30;99.90;;;;;;5051467;28;20075;-78
2023/04/28 04:40:26;;;;;;;18.10;13.88;;;6.30;99.90;;;;;;5052404;28;20124;-75
2023/04/28 04:42:51;;;;;;;20.13;14.75;;;6.30;99.90;;;;;;5052747;28;20084;-77
2023/04/28 04:45:17;;;;;;;21.10;14.18;;;6.30;99.90;;;;;;5052313;28;20041;-74
2023/04/28 04:47:43;;;;;;;21.20;14.38;;;7.20;99.90;;;;;;5052215;28;20044;-76
2023/04/28 04:50:10;;;;;;;24.70;15.40;;;6.30;99.90;;;;;;5052241;28;20037;-76
2023/04/28 04:52:36;;;;;;;21.65;14.93;;;6.30;99.90;;;;;;5052498;28;20533;-77
2023/04/28 04:55:02;;;;;;;20.92;14.63;;;6.30;99.90;;;;;;5052634;28;20087;-78
2023/04/28 04:57:28;;;;;;;21.33;15.02;;;6.40;99.90;;;;;;5052545;28;20049;-77
2023/04/28 04:59:53;;;;;;;21.60;14.75;;;6.40;99.90;;;;;;5052372;28;20095;-75
2023/04/28 05:02:19;;;;;;;19.30;14.35;;;6.40;99.90;;;;;;5052442;28;20548;-77
2023/04/28 05:04:45;;;;;;;23.05;15.30;;;6.40;99.90;;;;;;5052365;28;20048;-77
2023/04/28 05:07:11;;;;;;;20.50;13.80;;;6.50;99.90;;;;;;5052283;28;20452;-77
2023/04/28 05:09:37;;;;;;;23.75;14.18;;;6.40;99.90;;;;;;5052288;28;20143;-76
2023/04/28 05:12:03;;;;;;;19.00;13.02;;;6.50;99.90;;;;;;5052276;28;20462;-77
2023/04/28 05:14:28;;;;;;;21.83;13.02;;;6.50;99.90;;;;;;5052277;28;20131;-76
2023/04/28 05:16:54;;;;;;;18.83;12.82;;;6.40;99.90;;;;;;5052112;28;20052;-76
2023/04/28 05:19:20;;;;;;;22.60;15.02;;;6.50;99.90;;;;;;5052522;28;20076;-77
2023/04/28 05:21:46;;;;;;;20.17;13.43;;;6.60;99.90;;;;;;5051254;28;20083;-76
2023/04/28 05:24:13;;;;;;;24.67;14.95;;;6.60;99.90;;;;;;5052089;28;20049;-75
2023/04/28 05:26:39;;;;;;;19.70;14.00;;;6.60;99.90;;;;;;5052179;28;20446;-75
2023/04/28 05:29:05;;;;;;;18.00;14.23;;;6.60;99.90;;;;;;5052376;28;20155;-76
2023/04/28 05:31:31;;;;;;;18.27;14.45;;;6.60;99.90;;;;;;5052114;28;20064;-76
2023/04/28 05:33:57;;;;;;;20.25;13.10;;;6.70;99.90;;;;;;5052096;28;20181;-75
2023/04/28 05:36:23;;;;;;;19.98;13.23;;;6.70;99.90;;;;;;5052159;28;20052;-75
2023/04/28 05:38:49;;;;;;;17.33;12.43;;;6.70;99.90;;;;;;5052264;28;20504;-75
2023/04/28 05:41:15;;;;;;;18.40;13.27;;;6.70;99.90;;;;;;5051484;28;20128;-76
2023/04/28 05:43:40;;;;;;;15.00;12.00;;;6.80;99.90;;;;;;5052209;28;20049;-76
2023/04/28 05:46:06;;;;;;;17.00;13.15;;;6.90;99.90;;;;;;5050812;28;20132;-77
2023/04/28 05:48:32;;;;;;;17.30;12.55;;;6.90;99.90;;;;;;5051806;28;20128;-75
2023/04/28 05:50:58;;;;;;;18.80;14.65;;;7.00;99.90;;;;;;5052076;28;20500;-76
2023/04/28 05:53:23;;;;;;;16.05;12.55;;;7.00;99.90;;;;;;5050475;28;20044;-76
2023/04/28 05:55:49;;;;;;;18.17;12.82;;;7.10;99.90;;;;;;5052677;28;20052;-76
2023/04/28 05:58:15;;;;;;;18.17;13.30;;;7.10;99.90;;;;;;5055444;28;20124;-75
2023/04/28 06:00:40;;;;;;;15.43;11.60;;;7.10;99.90;;;;;;5055411;28;20049;-75
2023/04/28 06:03:09;;;;;;;15.48;12.02;;;7.10;99.90;;;;;;5055132;28;20048;-76
2023/04/28 06:05:36;;;;;;;17.15;13.23;;;7.20;99.90;;;;;;5055301;28;20053;-75
2023/04/28 06:08:02;;;;;;;19.15;12.98;;;7.20;99.90;;;;;;5055441;28;20060;-77
2023/04/28 06:10:28;;;;;;;14.43;11.05;;;7.20;99.90;;;;;;5055475;28;20120;-76
2023/04/28 06:12:53;;;;;;;16.55;12.20;;;7.20;99.90;;;;;;5055338;28;20088;-75
2023/04/28 06:15:19;;;;;;;17.38;12.88;;;7.20;99.90;;;;;;5054042;28;20129;-76
2023/04/28 06:17:45;;;;;;;18.58;13.10;;;7.30;99.90;;;;;;5055562;28;20219;-75
2023/04/28 06:20:12;;;;;;;17.80;12.70;;;7.30;99.90;;;;;;5054972;28;20449;-76
2023/04/28 06:22:39;;;;;;;16.98;13.02;;;7.30;99.90;;;;;;5055113;28;20105;-76
2023/04/28 06:25:05;;;;;;;14.90;11.73;;;7.30;99.90;;;;;;5055192;28;20115;-77
2023/04/28 06:27:31;;;;;;;17.33;12.45;;;7.40;99.90;;;;;;5054864;28;20044;-76
2023/04/28 06:29:58;;;;;;;19.13;11.82;;;7.40;99.90;;;;;;5055374;28;20094;-76
2023/04/28 06:32:23;;;;;;;18.27;12.30;;;7.40;99.90;;;;;;5054945;28;20045;-76
2023/04/28 06:34:49;;;;;;;17.48;12.57;;;7.40;99.90;;;;;;5054951;28;20048;-79
2023/04/28 06:37:15;;;;;;;14.52;12.23;;;7.50;99.90;;;;;;5055307;28;20051;-78
2023/04/28 06:39:40;;;;;;;22.13;12.73;;;7.40;99.90;;;;;;5054832;28;20120;-77
2023/04/28 06:42:06;;;;;;;17.95;12.77;;;7.50;99.90;;;;;;5054969;28;20465;-77
2023/04/28 06:44:32;;;;;;;17.63;11.77;;;7.50;99.90;;;;;;5054781;28;20514;-77
2023/04/28 06:46:58;;;;;;;14.73;11.52;;;7.70;99.90;;;;;;5054771;28;20075;-75
2023/04/28 06:49:24;;;;;;;17.98;12.50;;;7.70;99.90;;;;;;5054298;28;20063;-74
2023/04/28 06:51:50;;;;;;;17.08;12.45;;;7.80;99.90;;;;;;5054708;28;20459;-77
2023/04/28 06:54:15;;;;;;;17.85;13.15;;;7.80;99.90;;;;;;5054696;28;20044;-77
2023/04/28 06:56:41;;;;;;;14.80;11.60;;;7.90;99.90;;;;;;5054936;28;20048;-76
2023/04/28 06:59:07;;;;;;;17.17;12.68;;;8.00;99.90;;;;;;5054782;28;20472;-79
2023/04/28 07:01:32;;;;;;;16.65;12.23;;;8.10;99.90;;;;;;5054223;28;20449;-76
2023/04/28 07:03:58;;;;;;;18.20;12.40;;;8.10;99.90;;;;;;5054397;28;20068;-76
2023/04/28 07:06:26;;;;;;;15.68;12.43;;;8.20;99.90;;;;;;5054394;28;20123;-76
2023/04/28 07:08:52;;;;;;;17.90;12.15;;;8.20;99.90;;;;;;5052907;28;20114;-78
2023/04/28 07:11:18;;;;;;;17.20;12.25;;;8.30;99.90;;;;;;5054594;28;20106;-77
2023/04/28 07:13:48;;;;;;;15.88;10.75;;;8.30;99.90;;;;;;5054469;28;20056;-76
2023/04/28 07:16:14;;;;;;;18.23;11.68;;;8.40;99.90;;;;;;5054920;28;20075;-76
2023/04/28 07:18:40;;;;;;;16.33;12.57;;;8.40;99.90;;;;;;5054190;28;20541;-77
2023/04/28 07:21:05;;;;;;;17.40;11.48;;;8.50;99.90;;;;;;5054099;28;20075;-77
2023/04/28 07:23:31;;;;;;;14.63;10.50;;;8.50;99.90;;;;;;5052868;28;20171;-78
2023/04/28 07:25:57;;;;;;;15.82;11.35;;;8.50;99.90;;;;;;5053751;28;20048;-76
2023/04/28 07:28:23;;;;;;;21.02;11.60;;;8.70;99.90;;;;;;5054089;28;20084;-76
2023/04/28 07:30:49;;;;;;;15.98;11.65;;;8.80;99.90;;;;;;5052978;28;20488;-77
2023/04/28 07:33:15;;;;;;;18.02;11.10;;;8.80;99.90;;;;;;5053815;28;20486;-80
2023/04/28 07:35:41;;;;;;;12.88;9.02;;;8.90;99.90;;;;;;5052720;28;20053;-79
2023/04/28 07:38:07;;;;;;;14.10;11.05;;;9.00;99.90;;;;;;5053792;28;20455;-78
2023/04/28 07:40:33;;;;;;;19.15;11.80;;;9.00;99.90;;;;;;5035853;28;20049;-77
2023/04/28 07:42:58;;;;;;;14.15;11.50;;;9.00;99.90;;;;;;5053708;28;20052;-78
2023/04/28 07:45:25;;;;;;;12.25;9.43;;;9.00;99.90;;;;;;5052969;28;20430;-76
2023/04/28 07:47:50;;;;;;;12.80;10.98;;;9.00;99.90;;;;;;5053622;28;20041;-78
2023/04/28 07:50:16;;;;;;;14.18;10.43;;;9.00;99.90;;;;;;5053562;28;20045;-75
2023/04/28 07:52:42;;;;;;;13.25;10.63;;;9.00;99.90;;;;;;5054193;28;20045;-76
2023/04/28 07:55:08;;;;;;;14.80;10.82;;;9.00;99.90;;;;;;5052739;28;20465;-77
2023/04/28 07:57:34;;;;;;;15.55;11.30;;;9.00;99.90;;;;;;5053486;28;20091;-76
2023/04/28 08:00:00;;;;;;;13.73;11.10;;;9.00;99.90;;;;;;5053400;28;20056;-75
2023/04/28 08:02:26;;;;;;;14.95;11.15;;;9.10;99.90;;;;;;5053346;28;20144;-78
2023/04/28 08:04:51;;;;;;;14.90;11.35;;;9.10;99.90;;;;;;5053316;28;20052;-79
2023/04/28 08:07:17;;;;;;;14.25;11.55;;;9.30;99.90;;;;;;5053212;28;20052;-78
2023/04/28 08:09:46;;;;;;;14.13;10.75;;;9.50;99.90;;;;;;5053018;28;20073;-74
2023/04/28 08:12:12;;;;;;;13.35;11.38;;;9.60;99.90;;;;;;5053058;28;20095;-76
2023/04/28 08:14:38;;;;;;;16.50;11.02;;;9.70;99.90;;;;;;5053094;28;20059;-79
2023/04/28 08:17:03;;;;;;;15.88;10.43;;;9.80;99.90;;;;;;5052615;28;20037;-77
2023/04/28 08:19:29;;;;;;;13.90;10.32;;;9.90;99.90;;;;;;5053162;28;20080;-78
2023/04/28 08:21:55;;;;;;;15.15;11.48;;;9.90;99.90;;;;;;5052553;28;20053;-79
2023/04/28 08:24:21;;;;;;;16.35;10.63;;;9.90;99.90;;;;;;5053138;28;20052;-78
2023/04/28 08:26:46;;;;;;;17.15;12.90;;;9.90;99.90;;;;;;5052842;28;20454;-78
2023/04/28 08:29:12;;;;;;;12.38;9.77;;;10.00;99.90;;;;;;5051759;28;20048;-77
2023/04/28 08:31:38;;;;;;;16.40;11.15;;;9.90;99.90;;;;;;5052817;28;20040;-79
2023/04/28 08:34:03;;;;;;;17.92;10.50;;;9.90;99.90;;;;;;5052993;28;20481;-75
2023/04/28 08:36:31;;;;;;;11.60;10.32;;;9.80;99.90;;;;;;5052772;28;20055;-78
2023/04/28 08:38:58;;;;;;;12.95;9.98;;;9.80;99.90;;;;;;5052740;28;20049;-78
2023/04/28 08:41:26;;;;;;;11.93;10.60;;;9.80;99.90;;;;;;5052693;28;20049;-74
2023/04/28 08:43:52;;;;;;;16.48;11.10;;;9.80;99.90;;;;;;5052494;28;20052;-77
2023/04/28 08:46:20;;;;;;;14.73;10.50;;;9.40;99.90;;;;;;5052624;28;20094;-76
2023/04/28 08:48:48;;;;;;;14.43;10.50;;;9.90;99.90;;;;;;5052420;28;20044;-77
2023/04/28 08:51:31;;;;;;;14.65;11.02;;;10.00;99.90;;;;;;5052551;28;20198;-74
2023/04/28 08:53:58;;;;;;;16.00;10.10;;;9.90;99.90;;;;;;5052831;28;20045;-75
2023/04/28 08:56:30;;;;;;;14.00;10.70;;;9.90;99.90;;;;;;5052809;28;20049;-74
2023/04/28 08:58:59;;;;;;;15.75;10.93;;;9.90;99.90;;;;;;5053059;28;20037;-78
2023/04/28 09:01:25;;;;;;;14.68;11.27;;;9.80;99.90;;;;;;5052149;28;20136;-75
2023/04/28 09:03:53;;;;;;;17.90;11.80;;;9.80;99.90;;;;;;5052745;28;20088;-76
2023/04/28 09:06:20;;;;;;;15.15;11.55;;;9.80;99.90;;;;;;5052150;28;20130;-76
2023/04/28 09:08:46;;;;;;;15.07;11.80;;;9.90;99.90;;;;;;5052353;28;20084;-77
2023/04/28 09:11:12;;;;;;;16.10;12.25;;;10.00;99.90;;;;;;5052081;28;20416;-79
2023/04/28 09:13:39;;;;;;;17.88;12.35;;;10.20;99.90;;;;;;5052410;28;20049;-80
2023/04/28 09:16:05;;;;;;;15.48;12.13;;;10.30;99.90;;;;;;5052074;28;20053;-76
2023/04/28 09:18:32;;;;;;;17.85;12.60;;;10.40;99.90;;;;;;5050975;28;20041;-81
2023/04/28 09:21:06;;;;;;;16.05;12.05;;;10.50;99.90;;;;;;5052279;28;20083;-77
2023/04/28 09:23:34;;;;;;;14.50;11.70;;;10.60;99.90;;;;;;5051751;28;20477;-82
2023/04/28 09:26:06;;;;;;;15.00;11.43;;;10.70;99.90;;;;;;5052279;28;20106;-79
2023/04/28 09:28:33;;;;;;;16.60;12.07;;;10.80;99.90;;;;;;5050865;28;20394;-79
2023/04/28 09:30:59;;;;;;;17.02;11.75;;;11.00;99.90;;;;;;5036035;28;20041;-79
2023/04/28 09:33:25;;;;;;;14.63;11.82;;;11.20;99.90;;;;;;5055984;28;20049;-78
2023/04/28 09:35:52;;;;;;;14.93;12.15;;;11.30;99.90;;;;;;5055939;28;20045;-78
2023/04/28 09:38:19;;;;;;;14.27;10.65;;;11.50;99.90;;;;;;5055625;28;20492;-77
2023/04/28 09:40:52;;;;;;;15.25;10.82;;;12.10;99.90;;;;;;5056097;28;20131;-76
2023/04/28 09:43:29;;;;;;;15.40;11.00;;;12.60;99.90;;;;;;5055763;28;20090;-79
2023/04/28 09:45:56;;;;;;;14.77;10.82;;;12.60;99.90;;;;;;5055874;28;20206;-73
2023/04/28 09:48:30;;;;;;;12.75;9.82;;;12.70;99.90;;;;;;5055590;28;20132;-78
2023/04/28 09:50:58;;;;;;;12.05;9.63;;;12.90;99.90;;;;;;5055563;28;20041;-77
2023/04/28 09:53:24;;;;;;;11.90;9.85;;;13.20;99.90;;;;;;5055786;28;20045;-75
2023/04/28 09:55:52;;;;;;;15.95;8.50;;;14.10;99.90;;;;;;5055869;28;20049;-77
2023/04/28 09:58:21;;;;;;;10.82;9.43;;;13.80;99.90;;;;;;5055442;28;20052;-76
2023/04/28 10:00:54;;;;;;;11.65;9.63;;;13.50;99.90;;;;;;5055367;28;20037;-78
2023/04/28 10:03:27;;;;;;;;;;;13.40;99.90;;;;;;5056148;28;20535;-77
2023/04/28 10:05:56;;;;;;;11.60;9.90;;;13.60;99.90;;;;;;5055518;28;19921;-79
2023/04/28 10:08:24;;;;;;;10.52;8.25;;;14.50;99.90;;;;;;5055530;28;20052;-78
2023/04/28 10:10:53;;;;;;;10.57;8.75;;;15.30;99.90;;;;;;5055667;28;20513;-78
2023/04/28 10:13:20;;;;;;;10.30;8.30;;;15.60;99.90;;;;;;5055125;28;20076;-78
2023/04/28 10:15:46;;;;;;;14.00;7.60;;;15.50;99.90;;;;;;5055942;28;20092;-78
2023/04/28 10:18:16;;;;;;;13.90;8.13;;;15.20;99.90;;;;;;5055319;28;20049;-79
2023/04/28 10:20:44;;;;;;;11.07;8.55;;;14.80;99.90;;;;;;5055725;28;20048;-77
2023/04/28 10:23:28;;;;;;;14.20;9.15;;;14.50;99.90;;;;;;5054284;28;20045;-78
2023/04/28 10:25:58;;;;;;;10.27;7.88;;;14.50;99.90;;;;;;5055526;28;20075;-75
2023/04/28 10:28:25;;;;;;;10.73;7.38;;;14.30;99.90;;;;;;5055410;28;20142;-74
2023/04/28 10:31:10;;;;;;;10.23;7.40;;;14.10;99.90;;;;;;5055596;28;20103;-79
2023/04/28 10:33:37;;;;;;;10.15;7.53;;;14.00;99.90;;;;;;5054227;28;20052;-78
2023/04/28 10:36:04;;;;;;;15.40;9.07;;;13.90;99.90;;;;;;5055413;28;20051;-77
2023/04/28 10:38:29;;;;;;;12.13;8.02;;;13.80;99.90;;;;;;5055618;28;20127;-78
2023/04/28 10:41:02;;;;;;;11.05;8.82;;;13.80;99.90;;;;;;5055295;28;20107;-78
2023/04/28 10:43:38;;;;;;;13.35;9.13;;;13.90;99.90;;;;;;5054707;28;20068;-84
2023/04/28 10:46:10;;;;;;;10.75;7.72;;;13.90;99.90;;;;;;5054903;28;20064;-77
2023/04/28 10:48:48;;;;;;;14.73;8.98;;;14.00;99.90;;;;;;5037006;28;20110;-78
2023/04/28 10:51:13;;;;;;;14.52;8.55;;;14.10;99.90;;;;;;5054816;28;20051;-76
2023/04/28 10:53:45;;;;;;;13.75;8.13;;;14.10;99.90;;;;;;5054324;28;20045;-74
2023/04/28 10:56:18;;;;;;;9.60;8.02;;;14.10;99.90;;;;;;5054487;28;20049;-80
2023/04/28 10:58:51;;;;;;;9.43;7.32;;;14.00;99.90;;;;;;5054626;28;20125;-78
2023/04/28 11:01:34;;;;;;;9.85;8.13;;;13.90;99.90;;;;;;5054450;28;20089;-81
2023/04/28 11:04:12;;;;;;;13.85;9.57;;;13.70;99.90;;;;;;5053655;28;20435;-78
2023/04/28 11:06:59;;;;;;;9.15;8.20;;;13.60;99.90;;;;;;5054534;28;20110;-78
2023/04/28 11:09:48;;;;;;;12.30;9.15;;;13.50;99.90;;;;;;5053600;28;20084;-77
2023/04/28 11:12:14;;;;;;;11.73;8.65;;;13.40;99.90;;;;;;5054445;28;20132;-77
2023/04/28 11:14:40;;;;;;;13.32;8.93;;;13.30;99.90;;;;;;5054269;28;20071;-77
2023/04/28 11:17:08;;;;;;;9.82;8.00;;;13.20;99.90;;;;;;5054425;28;20469;-78
2023/04/28 11:19:42;;;;;;;10.05;7.90;;;13.20;99.90;;;;;;5036369;28;20045;-75
2023/04/28 11:22:19;;;;;;;11.95;9.00;;;13.20;99.90;;;;;;5053854;28;20049;-77
2023/04/28 11:25:04;;;;;;;9.43;7.82;;;13.30;99.90;;;;;;5053925;28;20060;-78
2023/04/28 11:27:32;;;;;;;11.05;8.85;;;13.40;99.90;;;;;;5053835;28;20051;-78
2023/04/28 11:29:58;;;;;;;14.63;8.80;;;13.50;99.90;;;;;;5053859;28;20088;-76
2023/04/28 11:32:32;;;;;;;10.02;8.32;;;13.60;99.90;;;;;;5053738;28;20110;-76
2023/04/28 11:34:57;;;;;;;14.55;8.57;;;13.80;99.90;;;;;;5053817;28;20045;-77
2023/04/28 11:37:24;;;;;;;11.70;8.18;;;14.00;99.90;;;;;;5053692;28;20045;-74
2023/04/28 11:39:50;;;;;;;11.98;8.73;;;14.20;99.90;;;;;;5052518;28;20045;-77
2023/04/28 11:42:16;;;;;;;10.98;8.45;;;14.40;99.90;;;;;;5053930;28;20056;-78
2023/04/28 11:44:52;;;;;;;10.88;8.13;;;14.60;99.90;;;;;;5052388;28;20048;-76
2023/04/28 11:47:29;;;;;;;13.43;8.55;;;14.60;99.90;;;;;;5053846;28;20051;-77
2023/04/28 11:49:55;;;;;;;8.45;7.47;;;14.50;99.90;;;;;;5053389;28;20055;-77
2023/04/28 11:52:20;;;;;;;9.10;7.90;;;14.40;99.90;;;;;;5053922;28;20120;-78
2023/04/28 11:54:56;;;;;;;11.13;9.02;;;14.30;99.90;;;;;;5052970;28;20492;-78
2023/04/28 11:57:22;;;;;;;11.10;8.25;;;14.20;99.90;;;;;;5053926;28;20041;-79
2023/04/28 11:59:48;;;;;;;16.10;7.68;;;14.10;99.90;;;;;;5053268;28;20513;-79
2023/04/28 12:02:15;;;;;;;9.98;7.53;;;14.10;99.90;;;;;;5053222;28;20037;-77
2023/04/28 12:04:43;;;;;;;12.52;8.27;;;14.10;99.90;;;;;;5052710;28;20384;-79
2023/04/28 12:07:17;;;;;;;10.60;7.95;;;14.10;99.90;;;;;;5053202;28;20052;-75
2023/04/28 12:10:07;;;;;;;10.52;7.38;;;14.10;99.90;;;;;;5053049;28;20045;-74
2023/04/28 12:12:33;;;;;;;10.70;8.10;;;14.10;99.90;;;;;;5052768;28;20049;-77
2023/04/28 12:15:00;;;;;;;9.88;8.32;;;14.10;99.90;;;;;;5053387;28;20094;-77
2023/04/28 12:17:45;;;;;;;10.02;8.98;;;14.10;99.90;;;;;;5053425;28;20175;-77
2023/04/28 12:20:31;;;;;;;11.90;9.20;;;14.20;99.90;;;;;;5052109;28;20037;-77
2023/04/28 12:22:57;;;;;;;8.70;7.80;;;14.20;99.90;;;;;;5052699;28;20183;-78
2023/04/28 12:25:23;;;;;;;9.82;8.57;;;14.30;99.90;;;;;;5053061;28;20100;-76
2023/04/28 12:28:06;;;;;;;12.82;8.30;;;14.30;99.90;;;;;;5052863;28;20041;-77
2023/04/28 12:30:37;;;;;;;13.45;8.20;;;14.30;99.90;;;;;;5052902;28;20052;-78
2023/04/28 12:33:03;;;;;;;12.98;8.45;;;14.30;99.90;;;;;;5052768;28;20044;-74
2023/04/28 12:35:29;;;;;;;11.13;8.48;;;14.20;99.90;;;;;;5052649;28;20559;-77
2023/04/28 12:37:57;;;;;;;12.82;9.23;;;14.30;99.90;;;;;;5051332;28;20212;-78
2023/04/28 12:40:23;;;;;;;12.57;9.38;;;14.20;99.90;;;;;;5052616;28;20102;-77
2023/04/28 12:42:49;;;;;;;11.75;8.30;;;14.20;99.90;;;;;;5052510;28;20049;-75
2023/04/28 12:45:15;;;;;;;11.43;8.52;;;14.10;99.90;;;;;;5052328;28;20513;-75
2023/04/28 12:47:41;;;;;;;11.60;8.82;;;14.00;99.90;;;;;;5052408;28;20045;-78
2023/04/28 12:50:07;;;;;;;8.63;7.72;;;13.90;99.90;;;;;;5052135;28;20380;-79
2023/04/28 12:52:34;;;;;;;15.27;8.80;;;13.90;99.90;;;;;;5052603;28;20076;-77
2023/04/28 12:55:00;;;;;;;12.15;9.13;;;13.80;99.90;;;;;;5051988;28;20374;-76
2023/04/28 12:57:27;;;;;;;11.02;8.95;;;13.80;99.90;;;;;;5052179;28;20049;-77